BEE719 LSGG-LSGS
Flight info
| Callsign | BEE719 |
|---|---|
| Flight time | 0h 33m |
| Altitude | 13000 |
| Route | SOSAL |
| Aircraft | DH8D/M-SDE2E3FGRY/H |
Departure
| Time | 2026-05-04 13:00 |
|---|---|
| Airport | Geneva International Airport (LSGG) |
Arrival
| Time | 2026-05-04 13:33 |
|---|---|
| Airport | Sion Airport (LSGS) |
| Time | Latitude | Longitude | Altitude | Speed | Heading |
|---|---|---|---|---|---|
| 2026-05-04 12:36 | 46.23179 | 6.10577 | 1392 ft | 0 kts | 0° |
| 2026-05-04 12:49 | 46.23180 | 6.10577 | 1392 ft | 1 kts | 360° |
| 2026-05-04 12:49 | 46.23198 | 6.10577 | 1392 ft | 3 kts | 359° |
| 2026-05-04 12:50 | 46.23231 | 6.10575 | 1392 ft | 5 kts | 349° |
| 2026-05-04 12:50 | 46.23264 | 6.10544 | 1392 ft | 5 kts | 316° |
| 2026-05-04 12:50 | 46.23316 | 6.10522 | 1392 ft | 10 kts | 36° |
| 2026-05-04 12:50 | 46.23376 | 6.10603 | 1391 ft | 12 kts | 41° |
| 2026-05-04 12:51 | 46.23441 | 6.10690 | 1389 ft | 12 kts | 45° |
| 2026-05-04 12:51 | 46.23503 | 6.10785 | 1388 ft | 13 kts | 45° |
| 2026-05-04 12:51 | 46.23569 | 6.10884 | 1387 ft | 14 kts | 46° |
| 2026-05-04 12:51 | 46.23642 | 6.10986 | 1385 ft | 14 kts | 45° |
| 2026-05-04 12:52 | 46.23714 | 6.11094 | 1384 ft | 15 kts | 46° |
| 2026-05-04 12:52 | 46.23789 | 6.11206 | 1383 ft | 15 kts | 44° |
| 2026-05-04 12:52 | 46.23866 | 6.11317 | 1380 ft | 16 kts | 46° |
| 2026-05-04 12:52 | 46.23945 | 6.11434 | 1379 ft | 16 kts | 47° |
| 2026-05-04 12:53 | 46.24025 | 6.11552 | 1376 ft | 16 kts | 45° |
| 2026-05-04 12:53 | 46.24104 | 6.11662 | 1375 ft | 15 kts | 46° |
| 2026-05-04 12:53 | 46.24179 | 6.11775 | 1373 ft | 15 kts | 46° |
| 2026-05-04 12:53 | 46.24255 | 6.11885 | 1372 ft | 15 kts | 44° |
| 2026-05-04 12:54 | 46.24331 | 6.11996 | 1371 ft | 15 kts | 47° |
| 2026-05-04 12:54 | 46.24403 | 6.12107 | 1370 ft | 15 kts | 45° |
| 2026-05-04 12:54 | 46.24477 | 6.12215 | 1370 ft | 14 kts | 44° |
| 2026-05-04 12:54 | 46.24551 | 6.12319 | 1369 ft | 14 kts | 44° |
| 2026-05-04 12:55 | 46.24622 | 6.12421 | 1369 ft | 14 kts | 47° |
| 2026-05-04 12:55 | 46.24690 | 6.12524 | 1368 ft | 14 kts | 45° |
| 2026-05-04 12:55 | 46.24760 | 6.12627 | 1367 ft | 14 kts | 45° |
| 2026-05-04 12:55 | 46.24857 | 6.12695 | 1366 ft | 17 kts | 18° |
| 2026-05-04 12:56 | 46.24902 | 6.12715 | 1366 ft | 0 kts | 16° |
| 2026-05-04 12:56 | 46.24914 | 6.12719 | 1366 ft | 3 kts | 14° |
| 2026-05-04 12:56 | 46.24919 | 6.12721 | 1366 ft | 0 kts | 13° |
| 2026-05-04 12:57 | 46.24984 | 6.12707 | 1366 ft | 13 kts | 326° |
| 2026-05-04 12:57 | 46.25002 | 6.12670 | 1366 ft | 8 kts | 275° |
| 2026-05-04 12:57 | 46.24976 | 6.12613 | 1366 ft | 0 kts | 221° |
| 2026-05-04 12:58 | 46.24942 | 6.12566 | 1367 ft | 0 kts | 225° |
| 2026-05-04 12:58 | 46.24923 | 6.12538 | 1367 ft | 0 kts | 226° |
| 2026-05-04 12:59 | 46.24923 | 6.12537 | 1367 ft | 0 kts | 226° |
| 2026-05-04 12:59 | 46.24816 | 6.12379 | 1368 ft | 68 kts | 225° |
| 2026-05-04 12:59 | 46.24279 | 6.11585 | 1378 ft | 143 kts | 226° |
| 2026-05-04 12:59 | 46.23542 | 6.10477 | 1755 ft | 164 kts | 227° |
| 2026-05-04 13:00 | 46.22722 | 6.09142 | 2117 ft | 191 kts | 227° |
| 2026-05-04 13:00 | 46.21789 | 6.07786 | 2890 ft | 189 kts | 226° |
| 2026-05-04 13:00 | 46.20934 | 6.06370 | 3427 ft | 204 kts | 230° |
| 2026-05-04 13:00 | 46.20134 | 6.04583 | 3837 ft | 222 kts | 229° |
| 2026-05-04 13:01 | 46.18963 | 6.02931 | 4230 ft | 240 kts | 220° |
| 2026-05-04 13:01 | 46.17748 | 6.01326 | 4929 ft | 241 kts | 221° |
| 2026-05-04 13:01 | 46.16515 | 5.99649 | 5654 ft | 243 kts | 221° |
| 2026-05-04 13:01 | 46.15315 | 5.97945 | 6365 ft | 245 kts | 224° |
| 2026-05-04 13:02 | 46.14155 | 5.96195 | 7139 ft | 245 kts | 225° |
| 2026-05-04 13:02 | 46.13200 | 5.94183 | 7870 ft | 248 kts | 249° |
| 2026-05-04 13:02 | 46.13256 | 5.91742 | 8588 ft | 258 kts | 286° |
| 2026-05-04 13:02 | 46.14400 | 5.89745 | 9277 ft | 272 kts | 323° |
| 2026-05-04 13:03 | 46.16239 | 5.89027 | 9899 ft | 283 kts | 359° |
| 2026-05-04 13:03 | 46.18092 | 5.89933 | 10454 ft | 291 kts | 36° |
| 2026-05-04 13:03 | 46.19445 | 5.92085 | 10999 ft | 292 kts | 56° |
| 2026-05-04 13:03 | 46.20628 | 5.94457 | 11621 ft | 296 kts | 55° |
| 2026-05-04 13:04 | 46.21884 | 5.96824 | 12309 ft | 297 kts | 53° |
| 2026-05-04 13:04 | 46.23169 | 5.99160 | 12765 ft | 308 kts | 53° |
| 2026-05-04 13:04 | 46.24564 | 6.01612 | 12908 ft | 321 kts | 52° |
| 2026-05-04 13:04 | 46.26043 | 6.04133 | 12941 ft | 336 kts | 51° |
| 2026-05-04 13:05 | 46.27647 | 6.06676 | 12924 ft | 349 kts | 46° |
| 2026-05-04 13:05 | 46.29393 | 6.09114 | 12957 ft | 355 kts | 44° |
| 2026-05-04 13:05 | 46.31201 | 6.11591 | 12956 ft | 355 kts | 44° |
| 2026-05-04 13:05 | 46.32984 | 6.14011 | 12919 ft | 350 kts | 44° |
| 2026-05-04 13:06 | 46.34747 | 6.16395 | 12922 ft | 346 kts | 44° |
| 2026-05-04 13:06 | 46.36511 | 6.18777 | 12926 ft | 343 kts | 43° |
| 2026-05-04 13:06 | 46.38242 | 6.21049 | 12926 ft | 337 kts | 43° |
| 2026-05-04 13:06 | 46.40002 | 6.23348 | 12919 ft | 336 kts | 43° |
| 2026-05-04 13:07 | 46.41721 | 6.25595 | 12910 ft | 335 kts | 43° |
| 2026-05-04 13:07 | 46.43438 | 6.27879 | 12907 ft | 333 kts | 44° |
| 2026-05-04 13:07 | 46.45119 | 6.30135 | 12933 ft | 331 kts | 44° |
| 2026-05-04 13:07 | 46.46816 | 6.32412 | 12936 ft | 331 kts | 43° |
| 2026-05-04 13:08 | 46.48504 | 6.34677 | 12896 ft | 331 kts | 44° |
| 2026-05-04 13:08 | 46.50188 | 6.36946 | 12899 ft | 329 kts | 44° |
| 2026-05-04 13:08 | 46.51844 | 6.39162 | 12941 ft | 324 kts | 43° |
| 2026-05-04 13:08 | 46.53495 | 6.41371 | 12941 ft | 326 kts | 43° |
| 2026-05-04 13:09 | 46.55158 | 6.43639 | 12892 ft | 326 kts | 46° |
| 2026-05-04 13:09 | 46.56400 | 6.46316 | 12871 ft | 321 kts | 72° |
| 2026-05-04 13:09 | 46.56671 | 6.49469 | 12954 ft | 311 kts | 92° |
| 2026-05-04 13:09 | 46.56634 | 6.52604 | 12950 ft | 312 kts | 94° |
| 2026-05-04 13:10 | 46.56573 | 6.55778 | 12931 ft | 314 kts | 94° |
| 2026-05-04 13:10 | 46.56504 | 6.58917 | 13012 ft | 312 kts | 95° |
| 2026-05-04 13:10 | 46.56432 | 6.62086 | 13046 ft | 316 kts | 95° |
| 2026-05-04 13:10 | 46.56352 | 6.65286 | 13567 ft | 316 kts | 95° |
| 2026-05-04 13:11 | 46.56281 | 6.68265 | 14039 ft | 316 kts | 96° |
| 2026-05-04 13:11 | 46.56216 | 6.70832 | 14303 ft | 318 kts | 96° |
| 2026-05-04 13:11 | 46.56107 | 6.75114 | 14765 ft | 322 kts | 95° |
| 2026-05-04 13:11 | 46.56022 | 6.78511 | 15222 ft | 326 kts | 95° |
| 2026-05-04 13:12 | 46.55938 | 6.81792 | 15720 ft | 328 kts | 95° |
| 2026-05-04 13:12 | 46.55853 | 6.85088 | 16171 ft | 330 kts | 95° |
| 2026-05-04 13:12 | 46.55594 | 6.88397 | 16505 ft | 330 kts | 109° |
| 2026-05-04 13:12 | 46.54577 | 6.91337 | 16911 ft | 329 kts | 124° |
| 2026-05-04 13:13 | 46.53360 | 6.94234 | 16986 ft | 343 kts | 125° |
| 2026-05-04 13:13 | 46.52090 | 6.97240 | 16979 ft | 351 kts | 124° |
| 2026-05-04 13:13 | 46.50828 | 7.00241 | 16934 ft | 345 kts | 124° |
| 2026-05-04 13:13 | 46.49591 | 7.03188 | 16971 ft | 340 kts | 124° |
| 2026-05-04 13:14 | 46.48365 | 7.06101 | 16968 ft | 336 kts | 124° |
| 2026-05-04 13:14 | 46.47167 | 7.08946 | 16986 ft | 331 kts | 124° |
| 2026-05-04 13:14 | 46.45969 | 7.11785 | 16998 ft | 328 kts | 124° |
| 2026-05-04 13:14 | 46.44775 | 7.14609 | 17004 ft | 328 kts | 124° |
| 2026-05-04 13:15 | 46.43582 | 7.17430 | 17001 ft | 327 kts | 125° |
| 2026-05-04 13:15 | 46.42395 | 7.20229 | 16989 ft | 326 kts | 124° |
| 2026-05-04 13:15 | 46.41205 | 7.23028 | 16998 ft | 326 kts | 125° |
| 2026-05-04 13:15 | 46.40027 | 7.25784 | 17011 ft | 326 kts | 124° |
| 2026-05-04 13:16 | 46.38834 | 7.28591 | 17016 ft | 326 kts | 124° |
| 2026-05-04 13:16 | 46.37647 | 7.31388 | 17010 ft | 327 kts | 124° |
| 2026-05-04 13:16 | 46.36448 | 7.34210 | 17011 ft | 327 kts | 124° |
| 2026-05-04 13:16 | 46.35257 | 7.37010 | 17014 ft | 327 kts | 124° |
| 2026-05-04 13:17 | 46.34076 | 7.39782 | 17031 ft | 327 kts | 124° |
| 2026-05-04 13:17 | 46.32875 | 7.42598 | 17021 ft | 328 kts | 124° |
| 2026-05-04 13:17 | 46.31686 | 7.45382 | 17020 ft | 329 kts | 125° |
| 2026-05-04 13:17 | 46.30471 | 7.48222 | 17019 ft | 329 kts | 125° |
| 2026-05-04 13:18 | 46.29274 | 7.51020 | 17030 ft | 329 kts | 124° |
| 2026-05-04 13:18 | 46.28302 | 7.54020 | 17006 ft | 334 kts | 107° |
| 2026-05-04 13:18 | 46.27969 | 7.57351 | 17047 ft | 336 kts | 99° |
| 2026-05-04 13:18 | 46.27726 | 7.60660 | 17062 ft | 337 kts | 99° |
| 2026-05-04 13:19 | 46.27478 | 7.64055 | 17071 ft | 338 kts | 98° |
| 2026-05-04 13:19 | 46.27249 | 7.67199 | 17045 ft | 336 kts | 99° |
| 2026-05-04 13:19 | 46.27001 | 7.70563 | 17034 ft | 334 kts | 99° |
| 2026-05-04 13:19 | 46.26750 | 7.73907 | 17059 ft | 335 kts | 99° |
| 2026-05-04 13:20 | 46.26497 | 7.77241 | 17042 ft | 336 kts | 99° |
| 2026-05-04 13:20 | 46.26241 | 7.80600 | 17038 ft | 336 kts | 99° |
| 2026-05-04 13:20 | 46.25985 | 7.83936 | 17030 ft | 336 kts | 99° |
| 2026-05-04 13:20 | 46.25733 | 7.87337 | 17032 ft | 336 kts | 98° |
| 2026-05-04 13:21 | 46.25986 | 7.90660 | 17020 ft | 342 kts | 74° |
| 2026-05-04 13:21 | 46.26962 | 7.93779 | 17039 ft | 342 kts | 65° |
| 2026-05-04 13:21 | 46.28022 | 7.96860 | 17028 ft | 342 kts | 65° |
| 2026-05-04 13:21 | 46.29096 | 7.99967 | 17044 ft | 346 kts | 65° |
| 2026-05-04 13:22 | 46.30386 | 8.02792 | 16994 ft | 326 kts | 44° |
| 2026-05-04 13:22 | 46.32226 | 8.04298 | 17023 ft | 297 kts | 12° |
| 2026-05-04 13:22 | 46.34230 | 8.04522 | 17044 ft | 288 kts | 356° |
| 2026-05-04 13:22 | 46.36228 | 8.04447 | 17028 ft | 283 kts | 354° |
| 2026-05-04 13:23 | 46.38163 | 8.04309 | 17025 ft | 271 kts | 353° |
| 2026-05-04 13:23 | 46.39987 | 8.03997 | 17007 ft | 256 kts | 339° |
| 2026-05-04 13:23 | 46.41441 | 8.02774 | 17011 ft | 236 kts | 309° |
| 2026-05-04 13:23 | 46.42267 | 8.00734 | 17019 ft | 237 kts | 280° |
| 2026-05-04 13:24 | 46.42195 | 7.98401 | 17044 ft | 238 kts | 248° |
| 2026-05-04 13:24 | 46.41501 | 7.96102 | 17035 ft | 256 kts | 242° |
| 2026-05-04 13:24 | 46.40712 | 7.93733 | 17033 ft | 271 kts | 242° |
| 2026-05-04 13:25 | 46.39217 | 7.89212 | 16980 ft | 222 kts | 245° |
| 2026-05-04 13:25 | 46.38623 | 7.87261 | 16979 ft | 203 kts | 242° |
| 2026-05-04 13:25 | 46.37983 | 7.85451 | 16489 ft | 204 kts | 240° |
| 2026-05-04 13:25 | 46.37328 | 7.83616 | 15816 ft | 212 kts | 241° |
| 2026-05-04 13:26 | 46.36699 | 7.81703 | 15293 ft | 213 kts | 243° |
| 2026-05-04 13:26 | 46.36101 | 7.79747 | 14804 ft | 212 kts | 244° |
| 2026-05-04 13:26 | 46.35524 | 7.77788 | 14294 ft | 212 kts | 245° |
| 2026-05-04 13:26 | 46.34956 | 7.75847 | 13913 ft | 209 kts | 244° |
| 2026-05-04 13:27 | 46.34385 | 7.73907 | 13422 ft | 212 kts | 244° |
| 2026-05-04 13:27 | 46.33829 | 7.72025 | 12984 ft | 210 kts | 244° |
| 2026-05-04 13:27 | 46.33249 | 7.70076 | 12503 ft | 209 kts | 244° |
| 2026-05-04 13:27 | 46.32682 | 7.68161 | 11886 ft | 208 kts | 244° |
| 2026-05-04 13:28 | 46.32117 | 7.66264 | 11274 ft | 208 kts | 244° |
| 2026-05-04 13:28 | 46.31550 | 7.64356 | 10676 ft | 209 kts | 244° |
| 2026-05-04 13:28 | 46.30971 | 7.62413 | 10100 ft | 209 kts | 245° |
| 2026-05-04 13:28 | 46.30402 | 7.60502 | 9519 ft | 209 kts | 245° |
| 2026-05-04 13:29 | 46.29802 | 7.58633 | 8978 ft | 205 kts | 234° |
| 2026-05-04 13:29 | 46.29106 | 7.56834 | 8259 ft | 209 kts | 231° |
| 2026-05-04 13:29 | 46.28448 | 7.54998 | 7661 ft | 208 kts | 246° |
| 2026-05-04 13:29 | 46.27956 | 7.53074 | 7288 ft | 193 kts | 246° |
| 2026-05-04 13:30 | 46.27479 | 7.51281 | 6615 ft | 200 kts | 248° |
| 2026-05-04 13:30 | 46.26984 | 7.49431 | 6096 ft | 194 kts | 246° |
| 2026-05-04 13:30 | 46.26498 | 7.47619 | 5462 ft | 199 kts | 248° |
| 2026-05-04 13:30 | 46.25983 | 7.45767 | 4827 ft | 197 kts | 236° |
| 2026-05-04 13:31 | 46.25253 | 7.44158 | 4338 ft | 189 kts | 229° |
| 2026-05-04 13:31 | 46.24544 | 7.42594 | 3767 ft | 185 kts | 225° |
| 2026-05-04 13:31 | 46.23857 | 7.41069 | 3261 ft | 179 kts | 228° |
| 2026-05-04 13:31 | 46.23304 | 7.39504 | 2718 ft | 175 kts | 241° |
| 2026-05-04 13:32 | 46.22988 | 7.37869 | 2346 ft | 160 kts | 258° |
| 2026-05-04 13:32 | 46.22746 | 7.36414 | 2100 ft | 143 kts | 251° |
| 2026-05-04 13:32 | 46.22440 | 7.35114 | 1869 ft | 135 kts | 255° |
| 2026-05-04 13:32 | 46.22179 | 7.33868 | 1658 ft | 124 kts | 252° |
| 2026-05-04 13:33 | 46.21955 | 7.32804 | 1622 ft | 98 kts | 252° |
| 2026-05-04 13:33 | 46.21834 | 7.32229 | 1620 ft | 25 kts | 251° |
| 2026-05-04 13:33 | 46.21785 | 7.32099 | 1620 ft | 6 kts | 184° |
| 2026-05-04 13:33 | 46.21757 | 7.32111 | 1620 ft | 2 kts | 160° |
| 2026-05-04 13:34 | 46.21733 | 7.32151 | 1620 ft | 9 kts | 82° |
| 2026-05-04 13:34 | 46.21753 | 7.32239 | 1620 ft | 8 kts | 68° |
| 2026-05-04 13:34 | 46.21766 | 7.32300 | 1620 ft | 11 kts | 75° |
| 2026-05-04 13:34 | 46.21795 | 7.32442 | 1620 ft | 17 kts | 71° |
| 2026-05-04 13:35 | 46.21830 | 7.32606 | 1620 ft | 16 kts | 72° |
| 2026-05-04 13:35 | 46.21883 | 7.32853 | 1622 ft | 9 kts | 85° |
| 2026-05-04 13:35 | 46.21851 | 7.32890 | 1623 ft | 4 kts | 126° |
| 2026-05-04 13:36 | 46.21855 | 7.32933 | 1623 ft | 4 kts | 71° |
| 2026-05-04 13:36 | 46.21858 | 7.32948 | 1623 ft | 0 kts | 73° |